ES-0001 weather

Trebujena Airfield
Trebujena, AndalucĂ­a, Spain

Public forecast

Using degrees Celsius for public forecast. Weather courtesy of forecast.io.

METAR (pilot weather report)

Closest report is Jerez Airport, 7.8 nm (14.5 km) SSE. Retrieved 2018/12/10 12:30 UTC (0 seconds ago):

LEJR 101230Z VRB02KT CAVOK 20/10 Q1025

TAF (pilot weather forecast)

Closest forecast is Jerez Airport, 7.8 nm (14.5 km) SSE. Retrieved 2018/12/10 12:00 UTC (17 minutes ago):

TAF LEJR 101100Z 1012/1112 VRB03KT CAVOK TX22/1014Z TN08/1106Z PROB30 TEMPO 1100/1109 3000 BR BECMG 1014/1016 14010KT